Main page
METAR-TAF:

METAR-TAF

Airports :

Huntsville Regional Airport

Huntsville, Texas, United States

latitude: 30-44-38N, longitude: 095-35-10W, elevation: 364 ft

Current weather observation

The report was made 34 minutes ago, at 12:53 UTC
Calm wind
Temperature 77°F
Humidity 89%
Pressure 30.01 in. Hg
Visibility: 10 miles
Clear sky

METAR: KUTS 231253Z AUTO 00000KT 10SM CLR 25/23 A3001 RMK AO2 SLP156 T02500233 $

Time: 08:27 (13:27 UTC)

Forecast

The report was made 2 hours and 7 minutes ago, at 11:20 UTC
Forecast valid from 23 at 12 UTC to 24 at 12 UTC
Wind 5 mph from variable directions
Visibility: 6 miles
Few clouds at a height of 4000 ft

TAF: KUTS 231120Z 2312/2412 VRB04KT P6SM FEW040

Weather observations and forecasts of more than 4000 airports (METAR and TAF reports).

The available stations are represented by yellow and red dots on the map.

Hover mouse over dot to see the name of the station.

Then click to see weather observations and forecasts.

To change the map : click on the green buttons with a black cross to zoom in, on the green button with a dash to zoom out, or on the green arrows for adjacent maps.


METAR-TAF: